Airfield :
LOGIN :

Register | Disclaimer

   EN    FR    IT 

 










Legend :    VFR   Marginal VFR   IFR   Intensive IFR   Very Intensive IFR
Visi :
Ceiling :
>= 8 km
>= 3000ft
5 to 8 km
1000 to 3000 ft
1500m to 5 km
500 to 1000 ft
800 to 1500m
200 to 500 ft
< 800m
< 200 ft
Symbols :   Thunderstorms  Fog  Heavy snow  Heavy precipitations  Wind > 20 kt
SIGMETs :     Misc.  Thunderstorms  Icing  Turbulence  Mountain Waves  Volcanic Ashes







- Airport Elevation : 1197 ft
- IATA code : SPM


ETAD - Spangdahlem Ab

CURRENT METAR :
  • 201856Z AUTO 23010KT 9000 BR OVC002 05/05 A2997 RMK AO2 SLP154 T00490046 TSNO $

EXPIRED METARs :
  • 201756Z AUTO 22009KT 9000 BR OVC002 04/04 A2997 RMK AO2 RAE1657DZB1657E01RAB01E11DZB11E24RAB24E41DZB41E54 SLP156 P0000 60008 T00420039 10042 20021 57012 TSNO $
  • 201656Z AUTO 23008KT 8000 -RA BR OVC002 03/03 A2999 RMK AO2 SLP163 P0002 T00340030 TSNO $
  • 201643Z AUTO 23008KT 6000 -RA BR OVC002 03/03 A2999 RMK AO2 SLP163 TSNO $
  • 201636Z AUTO 23011KT 8000 -RA BR OVC002 03/03 A2999 RMK AO2 SLP163 TSNO $
  • 201622Z AUTO 22011KT 6000 -RA BR OVC002 03/03 A2999 RMK AO2 SLP163 TSNO $
  • 201615Z AUTO 23011KT 8000 -RA BR OVC002 03/03 A2999 RMK AO2 SLP163 TSNO $

TAF AMD TAF ETAD
Valid from the 20 at 16:00 until the 21 at 17:00 UTC


201642Z 2016/2117 23012KT 6000 -RA OVC002 620206 QNH2997INS
TEMPO 2016/2022 OVC001
BECMG 2103/2104 25010G15KT 9999 NSW OVC002 620709 QNH2994INS
TEMPO 2104/2110 8000 -RA
BECMG 2114/2115 25012KT 9999 OVC015 620709 QNH2996INS TX07/2111Z TN03/2016Z
No reported NOTAMs for that airfield.



MET'MAP, your aeronautical weather chart ! - Copyright ORBIFLY December 2007 - Disclaimer

ORBIFLY MET'MAP TEAM :

Programming & Development : Alexandra Zaïnal
Concept & Development : Baudouin d'Aumeries
Co-Development & Prog : Marc-Olivier Méhu
Technical & hardware support : Manuel Goepfert

Contact : metmap@orbifly.com




SOURCES & CREDITS :

   NOAA